Time,TemperatureF,DewpointF,PressureIn,WindDirection,WindDirectionDegrees,WindSpeedMPH,WindSpeedGustMPH,Humidity,HourlyPrecipIn,Conditions,Clouds,dailyrainin,SoftwareType,DateUTC
2013-01-11 01:02:00,33.0,33.0,-100.00,WSW,245,0.0,1.0,100,-99.99,,,-99.99,,2013-01-11 09:02:00,
2013-01-11 01:12:00,33.0,33.0,-100.00,WSW,245,0.0,1.0,100,-99.99,,,-99.99,,2013-01-11 09:12:00,
2013-01-11 03:02:00,32.0,32.0,-100.00,SE,145,0.0,1.0,100,-99.99,,,-99.99,,2013-01-11 11:02:00,
2013-01-11 03:12:00,32.0,32.0,-100.00,SE,145,0.0,1.0,100,-99.99,,,-99.99,,2013-01-11 11:12:00,
2013-01-11 05:02:00,31.0,31.0,-100.00,SE,125,1.0,2.0,100,-99.99,,,-99.99,,2013-01-11 13:02:00,
2013-01-11 05:12:00,31.0,31.0,-100.00,SE,125,1.0,2.0,100,-99.99,,,-99.99,,2013-01-11 13:12:00,
2013-01-11 07:03:00,29.0,28.0,-100.00,SE,145,1.0,2.0,95,-99.99,,,-99.99,,2013-01-11 15:03:00,
2013-01-11 07:12:00,29.0,28.0,-100.00,SE,145,1.0,2.0,95,-99.99,,,-99.99,,2013-01-11 15:12:00,
2013-01-11 09:03:00,29.0,26.0,-100.00,ESE,120,1.0,2.0,88,-99.99,,,-99.99,,2013-01-11 17:03:00,
2013-01-11 09:12:00,29.0,26.0,-100.00,ESE,120,1.0,2.0,88,-99.99,,,-99.99,,2013-01-11 17:12:00,
2013-01-11 10:20:00,33.0,21.0,-100.00,ESE,115,7.0,12.0,60,-99.99,,,-99.99,,2013-01-11 18:20:00,
2013-01-11 11:00:00,34.0,21.0,-100.00,ENE,65,3.0,10.0,58,-99.99,,,-99.99,,2013-01-11 19:00:00,
2013-01-11 11:02:00,33.0,21.0,-100.00,ESE,115,7.0,12.0,60,-99.99,,,-99.99,,2013-01-11 19:02:00,
2013-01-11 11:12:00,33.0,21.0,-100.00,ESE,115,7.0,12.0,60,-99.99,,,-99.99,,2013-01-11 19:12:00,
2013-01-11 13:03:00,35.0,21.0,-100.00,South,190,2.0,9.0,56,-99.99,,,-99.99,,2013-01-11 21:03:00,
2013-01-11 13:12:00,35.0,21.0,-100.00,South,190,2.0,9.0,56,-99.99,,,-99.99,,2013-01-11 21:12:00,
2013-01-11 14:20:00,35.0,19.0,-100.00,NE,55,5.0,7.0,51,-99.99,,,-99.99,,2013-01-11 22:20:00,
2013-01-11 15:02:00,35.0,19.0,-100.00,NE,55,5.0,7.0,51,-99.99,,,-99.99,,2013-01-11 23:02:00,
2013-01-11 15:12:00,35.0,19.0,-100.00,NE,55,5.0,7.0,51,-99.99,,,-99.99,,2013-01-11 23:12:00,
2013-01-11 19:02:00,30.0,23.0,-100.00,SSE,150,0.0,2.0,74,-99.99,,,-99.99,,2013-01-12 03:02:00,
2013-01-11 19:12:00,30.0,23.0,-100.00,SSE,150,0.0,2.0,74,-99.99,,,-99.99,,2013-01-12 03:12:00,
2013-01-11 21:03:00,30.0,19.0,-100.00,SW,215,0.0,1.0,63,-99.99,,,-99.99,,2013-01-12 05:03:00,
2013-01-11 21:12:00,30.0,19.0,-100.00,SW,215,0.0,1.0,63,-99.99,,,-99.99,,2013-01-12 05:12:00,
2013-01-11 23:02:00,29.0,22.0,-100.00,ESE,120,3.0,6.0,74,-99.99,,,-99.99,,2013-01-12 07:02:00,
2013-01-11 23:12:00,29.0,22.0,-100.00,ESE,120,3.0,6.0,74,-99.99,,,-99.99,,2013-01-12 07:12:00,